createdAt,value
2023-03-07T00:01:11.746Z,96496.19
2023-03-07T00:03:39.874Z,96425.75
2023-03-07T00:06:09.951Z,96489.88
2023-03-07T00:08:38.404Z,96461.25
2023-03-07T00:11:10.271Z,96494.59
2023-03-07T00:13:39.618Z,96354.13
2023-03-07T00:16:10.388Z,96476.91
2023-03-07T00:18:38.643Z,96467.38
2023-03-07T00:21:09.039Z,96458.66
2023-03-07T00:23:39.074Z,96500.31
2023-03-07T00:26:09.989Z,96499.41
2023-03-07T00:28:38.150Z,96499.19
2023-03-07T00:31:08.544Z,96481.38
2023-03-07T00:33:36.938Z,96372.91
2023-03-07T00:36:07.787Z,96488.66
2023-03-07T00:38:36.668Z,96484.25
2023-03-07T00:41:07.345Z,96484.53
2023-03-07T00:43:37.265Z,96483.09
2023-03-07T00:46:06.975Z,96473.78
2023-03-07T00:48:36.331Z,96464.38
2023-03-07T00:51:05.050Z,96437.19
2023-03-07T00:53:33.552Z,96454.78
2023-03-07T00:56:03.710Z,96462.56
2023-03-07T00:58:33.676Z,96348.69
2023-03-07T01:01:04.899Z,96460.69
2023-03-07T01:03:33.583Z,96457.41
2023-03-07T01:06:03.841Z,96455.66
2023-03-07T01:08:32.436Z,96450.72
2023-03-07T01:11:01.443Z,96450.81
2023-03-07T01:13:29.758Z,96432.81
2023-03-07T01:16:07.392Z,96458.31
2023-03-07T01:18:36.960Z,96462.41
2023-03-07T01:21:12.884Z,96421.38
2023-03-07T01:23:41.020Z,96453.97
2023-03-07T01:26:12.672Z,96453.97
2023-03-07T01:28:40.767Z,96410.34
2023-03-07T01:31:09.169Z,96436.63
2023-03-07T01:33:38.796Z,96431.44
2023-03-07T01:36:15.361Z,96409.19
2023-03-07T01:38:43.607Z,96426.09
2023-03-07T01:41:11.727Z,96431.34
2023-03-07T01:43:39.978Z,96434.59
2023-03-07T01:46:43.178Z,96429.50
2023-03-07T01:49:26.897Z,96429.44
2023-03-07T01:52:00.110Z,96428.69
2023-03-07T01:54:30.356Z,96433.88
2023-03-07T01:56:59.554Z,96427.66
2023-03-07T01:59:33.004Z,96426.75
2023-03-07T02:02:06.973Z,96429.25
2023-03-07T02:04:42.907Z,96431.13
2023-03-07T02:07:12.154Z,96438.88
2023-03-07T02:09:41.594Z,96412.50
2023-03-07T02:12:10.192Z,96411.75
2023-03-07T02:14:38.456Z,96412.53
2023-03-07T02:17:07.211Z,96414.41
2023-03-07T02:19:50.567Z,96395.75
2023-03-07T02:22:20.192Z,96414.63
2023-03-07T02:24:54.373Z,96411.06
2023-03-07T02:27:25.540Z,96404.91
2023-03-07T02:29:54.012Z,96315.44
2023-03-07T02:32:22.230Z,96251.63
2023-03-07T02:34:50.323Z,96408.63
2023-03-07T02:37:21.505Z,96410.63
2023-03-07T02:39:50.237Z,96408.00
2023-03-07T02:42:22.238Z,96403.44
2023-03-07T02:44:59.321Z,96401.22
2023-03-07T02:47:28.259Z,96399.41
2023-03-07T02:49:56.913Z,96412.38
2023-03-07T02:52:27.964Z,96376.53
2023-03-07T02:54:56.188Z,96422.72
2023-03-07T02:57:24.334Z,96418.06
2023-03-07T02:59:52.522Z,96371.91
2023-03-07T03:02:22.097Z,96411.28
2023-03-07T03:04:50.299Z,96399.28
2023-03-07T03:07:18.510Z,96419.16
2023-03-07T03:09:46.618Z,96408.94
2023-03-07T03:12:14.740Z,96406.94
2023-03-07T03:14:42.858Z,96413.22
2023-03-07T03:17:11.030Z,96409.63
2023-03-07T03:19:40.537Z,96383.34
2023-03-07T03:22:08.615Z,96413.06
2023-03-07T03:24:40.602Z,96428.88
2023-03-07T03:27:08.806Z,96417.63
2023-03-07T03:29:36.924Z,96416.53
2023-03-07T03:32:05.538Z,96410.47
2023-03-07T03:34:34.082Z,96420.06
2023-03-07T03:37:03.668Z,96420.22
2023-03-07T03:39:31.780Z,96396.38
2023-03-07T03:41:59.944Z,96430.81
2023-03-07T03:44:28.058Z,96413.84
2023-03-07T03:46:56.415Z,96425.72
2023-03-07T03:49:24.673Z,96420.88
2023-03-07T03:51:52.903Z,96415.19
2023-03-07T03:54:22.592Z,96412.75
2023-03-07T03:56:50.721Z,96389.59
2023-03-07T03:59:18.830Z,96411.69
2023-03-07T04:01:47.075Z,96405.59
2023-03-07T04:04:15.683Z,96397.19
2023-03-07T04:06:43.834Z,96386.25
2023-03-07T04:09:12.507Z,96403.91
2023-03-07T04:11:42.078Z,96411.06
2023-03-07T04:14:10.259Z,96420.78
2023-03-07T04:16:38.450Z,96404.47
2023-03-07T04:19:06.640Z,96378.72
2023-03-07T04:21:34.808Z,96407.59
2023-03-07T04:24:02.918Z,96384.66
2023-03-07T04:26:31.107Z,96418.03
2023-03-07T04:29:00.668Z,96414.81
2023-03-07T04:31:29.742Z,96413.03
2023-03-07T04:33:58.435Z,96406.06
2023-03-07T04:36:26.688Z,96407.69
2023-03-07T04:38:54.902Z,96410.91
2023-03-07T04:41:26.296Z,96417.19
2023-03-07T04:43:54.446Z,96321.22
2023-03-07T04:46:24.051Z,96410.50
2023-03-07T04:48:52.226Z,96425.22
2023-03-07T04:51:20.376Z,96426.13
2023-03-07T04:53:48.641Z,96400.38
2023-03-07T04:56:16.877Z,96421.63
2023-03-07T04:58:45.691Z,96422.47
2023-03-07T05:01:14.362Z,96423.03
2023-03-07T05:03:44.422Z,96424.78
2023-03-07T05:06:15.999Z,96422.63
2023-03-07T05:08:44.158Z,96420.13
2023-03-07T05:11:12.278Z,96390.50
2023-03-07T05:13:40.525Z,96411.84
2023-03-07T05:16:09.350Z,96427.19
2023-03-07T05:18:37.549Z,96428.91
2023-03-07T05:21:07.264Z,96430.59
2023-03-07T05:23:35.382Z,96424.28
2023-03-07T05:26:03.544Z,96408.16
2023-03-07T05:28:31.773Z,96417.69
2023-03-07T05:30:59.981Z,96398.81
2023-03-07T05:33:28.139Z,96425.38
2023-03-07T05:35:56.608Z,96418.63
2023-03-07T05:38:26.150Z,96424.91
2023-03-07T05:40:54.307Z,96429.94
2023-03-07T05:43:22.390Z,96430.78
2023-03-07T05:45:50.564Z,96428.34
2023-03-07T05:48:18.768Z,96428.53
2023-03-07T05:50:47.023Z,96429.25
2023-03-07T05:53:15.208Z,96438.66
2023-03-07T05:55:45.370Z,96412.03
2023-03-07T05:58:13.606Z,96427.19
2023-03-07T06:00:41.981Z,96401.03
2023-03-07T06:03:10.195Z,96428.94
2023-03-07T06:05:39.308Z,96434.91
2023-03-07T06:08:08.000Z,96413.44
2023-03-07T06:10:37.475Z,96428.00
2023-03-07T06:13:07.138Z,96441.88
2023-03-07T06:15:35.345Z,96439.34
2023-03-07T06:18:03.504Z,96427.22
2023-03-07T06:20:31.868Z,96424.66
2023-03-07T06:23:01.431Z,96413.81
2023-03-07T06:25:29.595Z,96442.91
2023-03-07T06:28:01.034Z,96394.22
2023-03-07T06:30:30.778Z,96394.44
2023-03-07T06:32:58.920Z,96277.59
2023-03-07T06:35:27.279Z,96436.91
2023-03-07T06:37:55.424Z,96413.06
2023-03-07T06:40:23.609Z,96428.47
2023-03-07T06:42:53.824Z,96441.13
2023-03-07T06:45:22.017Z,96425.84
2023-03-07T06:47:51.612Z,96423.16
2023-03-07T06:50:29.882Z,96444.38
2023-03-07T06:53:02.637Z,96431.50
2023-03-07T06:55:30.876Z,96447.66
2023-03-07T06:57:59.063Z,96419.84
2023-03-07T07:00:27.393Z,96451.00
2023-03-07T07:02:57.123Z,96444.09
2023-03-07T07:05:25.315Z,96457.91
2023-03-07T07:07:53.505Z,96433.25
2023-03-07T07:10:21.584Z,96455.50
2023-03-07T07:12:49.750Z,96447.66
2023-03-07T07:15:18.074Z,96454.56
2023-03-07T07:17:46.194Z,96359.19
2023-03-07T07:20:16.195Z,96458.75
2023-03-07T07:22:44.294Z,96226.38
2023-03-07T07:25:13.004Z,96457.28
2023-03-07T07:27:41.274Z,96467.69
2023-03-07T07:30:10.528Z,96472.06
2023-03-07T07:32:38.891Z,96464.22
2023-03-07T07:35:08.287Z,96464.22
2023-03-07T07:37:37.799Z,96445.50
2023-03-07T07:40:06.842Z,96448.81
2023-03-07T07:42:34.989Z,96468.44
2023-03-07T07:45:03.197Z,96472.72
2023-03-07T07:47:31.322Z,96459.19
2023-03-07T07:49:59.493Z,96464.28
2023-03-07T07:52:27.604Z,96470.25
2023-03-07T07:54:57.205Z,96470.31
2023-03-07T07:57:25.499Z,96483.31
2023-03-07T07:59:53.598Z,96488.34
2023-03-07T08:02:21.955Z,96483.03
2023-03-07T08:04:50.149Z,96480.59
2023-03-07T08:07:18.335Z,96342.41
2023-03-07T08:09:46.464Z,96477.06
2023-03-07T08:12:15.992Z,96479.59
2023-03-07T08:14:44.100Z,96446.34
2023-03-07T08:17:12.187Z,96480.34
2023-03-07T08:19:40.336Z,96476.03
2023-03-07T08:22:08.501Z,96473.28
2023-03-07T08:24:40.892Z,96470.69
2023-03-07T08:27:09.415Z,96474.03
2023-03-07T08:29:38.985Z,96476.81
2023-03-07T08:32:07.851Z,96468.13
2023-03-07T08:34:36.022Z,96466.38
2023-03-07T08:37:04.120Z,96471.53
2023-03-07T08:39:32.260Z,96455.25
2023-03-07T08:42:00.996Z,96462.94
2023-03-07T08:44:29.259Z,96466.59
2023-03-07T08:46:58.861Z,96462.16
2023-03-07T08:49:27.146Z,96470.63
2023-03-07T08:51:55.183Z,96417.63
2023-03-07T08:54:23.364Z,96465.53
2023-03-07T08:56:51.457Z,96460.50
2023-03-07T08:59:19.632Z,96444.50
2023-03-07T09:01:47.808Z,96462.38
2023-03-07T09:04:17.434Z,96469.28
2023-03-07T09:06:45.543Z,96450.53
2023-03-07T09:09:13.698Z,96446.22
2023-03-07T09:11:42.019Z,96441.16
2023-03-07T09:14:10.259Z,96464.78
2023-03-07T09:16:38.430Z,96472.56
2023-03-07T09:19:06.889Z,96451.91
2023-03-07T09:21:36.628Z,96382.97
2023-03-07T09:24:05.410Z,96477.56
2023-03-07T09:26:33.649Z,96472.28
2023-03-07T09:29:02.025Z,96474.06
2023-03-07T09:31:30.169Z,96466.28
2023-03-07T09:33:58.707Z,96474.19
2023-03-07T09:36:26.799Z,96467.22
2023-03-07T09:38:58.236Z,96456.88
2023-03-07T09:41:41.790Z,96381.00
2023-03-07T09:44:19.381Z,96468.97
2023-03-07T09:46:59.676Z,96462.91
2023-03-07T09:49:33.956Z,96463.84
2023-03-07T09:52:04.089Z,96457.91
2023-03-07T09:54:41.187Z,96461.34
2023-03-07T09:57:17.672Z,96457.00
2023-03-07T09:59:48.738Z,96457.94
2023-03-07T10:02:20.059Z,96453.16
2023-03-07T10:04:53.847Z,96447.72
2023-03-07T10:07:25.840Z,96441.63
2023-03-07T10:09:59.824Z,96438.16
2023-03-07T10:12:40.110Z,96406.44
2023-03-07T10:15:20.806Z,96431.25
2023-03-07T10:18:10.717Z,96414.94
2023-03-07T10:20:46.971Z,96400.41
2023-03-07T10:23:45.125Z,96436.41
2023-03-07T10:26:21.980Z,96414.25
2023-03-07T10:28:50.342Z,96433.78
2023-03-07T10:31:23.884Z,96432.84
2023-03-07T10:33:54.644Z,96419.38
2023-03-07T10:36:24.453Z,96368.94
2023-03-07T10:39:05.391Z,96438.97
2023-03-07T10:41:34.936Z,96309.34
2023-03-07T10:44:03.247Z,96253.06
2023-03-07T10:46:36.625Z,96287.16
2023-03-07T10:49:13.400Z,96427.47
2023-03-07T10:51:52.911Z,96406.13
2023-03-07T10:54:23.906Z,96415.34
2023-03-07T10:57:07.368Z,96421.28
2023-03-07T10:59:36.239Z,96278.38
2023-03-07T11:02:21.560Z,96414.16
2023-03-07T11:04:49.741Z,96420.94
2023-03-07T11:07:28.741Z,96382.50
2023-03-07T11:09:58.298Z,96379.06
2023-03-07T11:12:29.338Z,96415.03
2023-03-07T11:14:59.322Z,96383.16
2023-03-07T11:17:30.625Z,96212.69
2023-03-07T11:19:59.376Z,96396.50
2023-03-07T11:22:29.801Z,96392.22
2023-03-07T11:25:05.501Z,96385.25
2023-03-07T11:27:39.158Z,96359.66
2023-03-07T11:30:19.029Z,96374.03
2023-03-07T11:32:58.676Z,96385.16
2023-03-07T11:35:41.932Z,96368.06
2023-03-07T11:38:16.731Z,96341.47
2023-03-07T11:41:01.343Z,96359.31
2023-03-07T11:43:51.775Z,96356.03
2023-03-07T11:46:28.308Z,96353.69
2023-03-07T11:49:09.148Z,96330.38
2023-03-07T11:51:51.373Z,96349.31
2023-03-07T11:54:29.304Z,96345.97
2023-03-07T11:57:05.541Z,96349.47
2023-03-07T11:59:55.216Z,96344.06
2023-03-07T12:02:44.862Z,96339.03
2023-03-07T12:05:26.479Z,96322.25
2023-03-07T12:08:17.229Z,96335.50
2023-03-07T12:10:57.103Z,96323.94
2023-03-07T12:13:38.887Z,96209.84
2023-03-07T12:16:20.811Z,96323.97
2023-03-07T12:19:11.796Z,96312.56
2023-03-07T12:22:00.123Z,96313.50
2023-03-07T12:24:32.560Z,96322.81
2023-03-07T12:27:04.866Z,96318.41
2023-03-07T12:29:38.986Z,96322.63
2023-03-07T12:32:13.451Z,96293.41
2023-03-07T12:34:46.939Z,96313.75
2023-03-07T12:37:19.617Z,96313.09
2023-03-07T12:39:53.373Z,96317.59
2023-03-07T12:42:32.535Z,96305.66
2023-03-07T12:45:06.325Z,96304.75
2023-03-07T12:47:49.148Z,96304.75
2023-03-07T12:50:25.031Z,96298.59
2023-03-07T12:52:59.527Z,96301.19
2023-03-07T12:55:32.103Z,96296.00
2023-03-07T12:58:07.666Z,96287.31
2023-03-07T13:00:42.300Z,96029.53
2023-03-07T13:03:19.932Z,96276.81
2023-03-07T13:05:49.769Z,96242.84
2023-03-07T13:08:23.991Z,96288.19
2023-03-07T13:10:52.274Z,96280.41
2023-03-07T13:13:55.712Z,96279.47
2023-03-07T13:16:36.329Z,96251.31
2023-03-07T13:19:42.939Z,96271.22
2023-03-07T13:22:48.081Z,96254.00
2023-03-07T13:25:44.961Z,96256.78
2023-03-07T13:28:35.929Z,96260.84
2023-03-07T13:31:36.739Z,96263.94
2023-03-07T13:34:41.529Z,96251.16
2023-03-07T13:37:50.233Z,96248.38
2023-03-07T13:40:50.266Z,96116.16
2023-03-07T13:43:57.893Z,96255.13
2023-03-07T13:46:45.843Z,96251.13
2023-03-07T13:49:47.479Z,96245.44
2023-03-07T13:52:32.940Z,96162.00
2023-03-07T13:55:03.714Z,96240.25
2023-03-07T13:57:41.865Z,96169.56
2023-03-07T14:00:39.551Z,96227.34
2023-03-07T14:03:37.165Z,96229.75
2023-03-07T14:06:13.973Z,96210.88
2023-03-07T14:08:44.960Z,96152.13
2023-03-07T14:11:23.243Z,96172.84
2023-03-07T14:14:15.778Z,96231.47
2023-03-07T14:16:59.950Z,96225.97
2023-03-07T14:19:47.796Z,96219.00
2023-03-07T14:22:30.793Z,96194.16
2023-03-07T14:25:16.983Z,96210.97
2023-03-07T14:27:54.188Z,96210.78
2023-03-07T14:30:23.750Z,96137.56
2023-03-07T14:32:53.051Z,96154.47
2023-03-07T14:35:41.675Z,96202.28
2023-03-07T14:38:20.485Z,96140.34
2023-03-07T14:41:16.961Z,96197.94
2023-03-07T14:43:56.827Z,96199.91
2023-03-07T14:46:35.353Z,96188.53
2023-03-07T14:49:15.253Z,96193.34
2023-03-07T14:51:45.519Z,96170.28
2023-03-07T14:54:19.906Z,96122.84
2023-03-07T14:56:51.349Z,96189.19
2023-03-07T14:59:28.628Z,96184.91
2023-03-07T15:01:58.346Z,96155.94
2023-03-07T15:04:28.565Z,96111.38
2023-03-07T15:06:58.420Z,96178.31
2023-03-07T15:09:29.770Z,96173.28
2023-03-07T15:12:03.898Z,96157.81
2023-03-07T15:14:40.005Z,96160.50
2023-03-07T15:17:16.619Z,96142.81
2023-03-07T15:19:48.476Z,95983.13
2023-03-07T15:22:21.010Z,96122.97
2023-03-07T15:24:51.927Z,96140.66
2023-03-07T15:27:26.057Z,96101.50
2023-03-07T15:29:55.113Z,96122.97
2023-03-07T15:32:37.382Z,96140.81
2023-03-07T15:35:15.986Z,96137.56
2023-03-07T15:37:56.108Z,96110.97
2023-03-07T15:40:31.692Z,96136.72
2023-03-07T15:43:16.684Z,96125.00
2023-03-07T15:45:47.104Z,96088.47
2023-03-07T15:48:25.636Z,96136.06
2023-03-07T15:50:54.561Z,96130.81
2023-03-07T15:53:28.588Z,96123.25
2023-03-07T15:56:00.374Z,96116.81
2023-03-07T15:58:30.116Z,96118.41
2023-03-07T16:01:19.998Z,96093.59
2023-03-07T16:03:53.628Z,96103.66
2023-03-07T16:06:41.987Z,96104.53
2023-03-07T16:09:14.148Z,96054.44
2023-03-07T16:11:45.693Z,96096.19
2023-03-07T16:14:23.249Z,96111.78
2023-03-07T16:16:51.720Z,96102.22
2023-03-07T16:19:19.965Z,95910.50
2023-03-07T16:21:48.417Z,96095.81
2023-03-07T16:24:16.906Z,96093.22
2023-03-07T16:26:48.148Z,96101.06
2023-03-07T16:29:18.161Z,96070.56
2023-03-07T16:31:46.756Z,96105.53
2023-03-07T16:34:17.974Z,96100.41
2023-03-07T16:36:47.431Z,96099.69
2023-03-07T16:39:16.306Z,96098.53
2023-03-07T16:41:48.496Z,96096.94
2023-03-07T16:44:18.001Z,96085.31
2023-03-07T16:46:52.280Z,96108.03
2023-03-07T16:49:21.674Z,96108.78
2023-03-07T16:52:04.741Z,96111.44
2023-03-07T16:54:33.795Z,96060.31
2023-03-07T16:57:04.512Z,96106.06
2023-03-07T16:59:35.808Z,96107.94
2023-03-07T17:02:12.853Z,96098.66
2023-03-07T17:04:42.741Z,96099.75
2023-03-07T17:07:18.020Z,96111.25
2023-03-07T17:09:46.491Z,96104.22
2023-03-07T17:12:16.853Z,96107.69
2023-03-07T17:14:45.669Z,96102.50
2023-03-07T17:17:19.917Z,96099.06
2023-03-07T17:19:48.164Z,96097.44
2023-03-07T17:22:17.460Z,96102.63
2023-03-07T17:24:46.492Z,96092.50
2023-03-07T17:27:16.185Z,96034.16
2023-03-07T17:29:47.720Z,96041.66
2023-03-07T17:32:15.911Z,96104.09
2023-03-07T17:34:46.292Z,96074.16
2023-03-07T17:37:14.540Z,96062.94
2023-03-07T17:39:43.556Z,96096.22
2023-03-07T17:42:11.787Z,96084.53
2023-03-07T17:44:42.569Z,96101.50
2023-03-07T17:47:10.857Z,96004.53
2023-03-07T17:49:39.897Z,96067.22
2023-03-07T17:52:08.442Z,96099.75
2023-03-07T17:54:36.742Z,96101.13
2023-03-07T17:57:05.165Z,96095.16
2023-03-07T17:59:33.840Z,96043.94
2023-03-07T18:02:03.610Z,96066.63
2023-03-07T18:04:31.942Z,96088.00
2023-03-07T18:07:00.346Z,95955.91
2023-03-07T18:09:28.723Z,96094.47
2023-03-07T18:11:57.366Z,96100.47
2023-03-07T18:14:25.764Z,96097.97
2023-03-07T18:16:54.140Z,96088.34
2023-03-07T18:19:27.501Z,96060.06
2023-03-07T18:21:56.122Z,96086.56
2023-03-07T18:24:27.446Z,96078.75
2023-03-07T18:26:57.015Z,96071.03
2023-03-07T18:29:26.106Z,96080.50
2023-03-07T18:31:54.654Z,96086.72
2023-03-07T18:34:25.135Z,96074.59
2023-03-07T18:36:54.414Z,96099.38
2023-03-07T18:39:23.407Z,96098.72
2023-03-07T18:41:52.182Z,96107.47
2023-03-07T18:44:20.349Z,96093.47
2023-03-07T18:46:48.784Z,96094.38
2023-03-07T18:49:17.905Z,96089.06
2023-03-07T18:51:48.539Z,96072.13
2023-03-07T18:54:16.928Z,96083.09
2023-03-07T18:56:47.009Z,96124.59
2023-03-07T18:59:17.441Z,96099.88
2023-03-07T19:01:46.004Z,96015.38
2023-03-07T19:04:14.224Z,96072.25
2023-03-07T19:06:45.250Z,96089.75
2023-03-07T19:09:28.138Z,96089.59
2023-03-07T19:11:56.474Z,96090.34
2023-03-07T19:14:24.816Z,96082.84
2023-03-07T19:16:53.170Z,96087.50
2023-03-07T19:19:21.460Z,96083.16
2023-03-07T19:21:49.635Z,96074.84
2023-03-07T19:24:19.439Z,96100.47
2023-03-07T19:26:47.707Z,96089.19
2023-03-07T19:29:16.439Z,96106.56
2023-03-07T19:31:45.129Z,96083.16
2023-03-07T19:34:13.788Z,96093.34
2023-03-07T19:36:42.744Z,96078.94
2023-03-07T19:39:15.231Z,96092.16
2023-03-07T19:41:47.978Z,96096.63
2023-03-07T19:44:16.921Z,96097.34
2023-03-07T19:46:47.335Z,96028.28
2023-03-07T19:49:18.456Z,96091.44
2023-03-07T19:51:46.692Z,96092.50
2023-03-07T19:54:15.728Z,96089.31
2023-03-07T19:56:45.817Z,95972.91
2023-03-07T19:59:14.435Z,96087.50
2023-03-07T20:01:42.654Z,96081.53
2023-03-07T20:04:11.077Z,96099.09
2023-03-07T20:06:42.296Z,96099.88
2023-03-07T20:09:14.942Z,96096.06
2023-03-07T20:11:44.822Z,96047.06
2023-03-07T20:14:13.793Z,96074.09
2023-03-07T20:16:42.892Z,96053.94
2023-03-07T20:19:11.728Z,96093.53
2023-03-07T20:21:42.539Z,96102.16
2023-03-07T20:24:10.881Z,96079.28
2023-03-07T20:26:40.836Z,96092.31
2023-03-07T20:29:11.102Z,96088.97
2023-03-07T20:31:40.290Z,96085.78
2023-03-07T20:34:08.734Z,96021.44
2023-03-07T20:36:38.745Z,96095.00
2023-03-07T20:39:08.992Z,96106.91
2023-03-07T20:41:37.443Z,96088.81
2023-03-07T20:44:07.261Z,96099.19
2023-03-07T20:46:38.667Z,96095.41
2023-03-07T20:49:07.371Z,96100.13
2023-03-07T20:51:37.990Z,96099.47
2023-03-07T20:54:08.027Z,96101.31
2023-03-07T20:56:37.844Z,96094.47
2023-03-07T20:59:06.836Z,96076.75
2023-03-07T21:01:37.252Z,96092.00
2023-03-07T21:04:09.388Z,96090.59
2023-03-07T21:06:38.599Z,96076.84
2023-03-07T21:09:10.302Z,96110.88
2023-03-07T21:11:41.382Z,96100.91
2023-03-07T21:14:09.982Z,96089.16
2023-03-07T21:16:39.800Z,96049.19
2023-03-07T21:19:09.328Z,96100.31
2023-03-07T21:21:37.963Z,96107.03
2023-03-07T21:24:07.574Z,96104.44
2023-03-07T21:26:37.524Z,96073.19
2023-03-07T21:29:08.420Z,96114.06
2023-03-07T21:31:37.223Z,96120.06
2023-03-07T21:34:09.023Z,96119.31
2023-03-07T21:36:37.632Z,96114.44
2023-03-07T21:39:08.132Z,96112.81
2023-03-07T21:41:36.480Z,96077.00
2023-03-07T21:44:04.942Z,96093.53
2023-03-07T21:46:33.165Z,96101.00
2023-03-07T21:49:02.842Z,96076.28
2023-03-07T21:51:32.769Z,96099.44
2023-03-07T21:54:01.080Z,96096.97
2023-03-07T21:56:29.329Z,96109.13
2023-03-07T21:58:57.656Z,96079.47
2023-03-07T22:01:28.808Z,96107.41
2023-03-07T22:03:59.578Z,96109.13
2023-03-07T22:06:30.061Z,96117.88
2023-03-07T22:08:59.898Z,96114.56
2023-03-07T22:11:28.227Z,96111.22
2023-03-07T22:13:56.753Z,96108.78
2023-03-07T22:16:25.055Z,96109.63
2023-03-07T22:18:54.510Z,96112.94
2023-03-07T22:21:25.185Z,96054.22
2023-03-07T22:23:57.908Z,96109.53
2023-03-07T22:26:29.038Z,96102.72
2023-03-07T22:28:57.267Z,96096.88
2023-03-07T22:31:26.024Z,96082.63
2023-03-07T22:33:54.537Z,96078.56
2023-03-07T22:36:22.916Z,96134.78
2023-03-07T22:38:55.298Z,96109.34
2023-03-07T22:41:24.348Z,96121.72
2023-03-07T22:43:54.137Z,96118.41
2023-03-07T22:46:22.883Z,96110.72
2023-03-07T22:48:53.545Z,96106.44
2023-03-07T22:51:22.075Z,96112.63
2023-03-07T22:53:50.408Z,96108.47
2023-03-07T22:56:26.636Z,95983.38
2023-03-07T22:58:56.862Z,96020.06
2023-03-07T23:01:26.921Z,96108.34
2023-03-07T23:03:56.395Z,96113.47
2023-03-07T23:06:27.199Z,96093.69
2023-03-07T23:08:55.577Z,96118.56
2023-03-07T23:11:25.850Z,96115.34
2023-03-07T23:13:56.055Z,95996.94
2023-03-07T23:16:26.069Z,96114.19
2023-03-07T23:18:57.572Z,96115.84
2023-03-07T23:21:27.988Z,96109.91
2023-03-07T23:23:57.081Z,96115.13
2023-03-07T23:26:27.689Z,96111.69
2023-03-07T23:28:57.868Z,96126.72
2023-03-07T23:31:27.590Z,96111.22
2023-03-07T23:33:57.293Z,96111.47
2023-03-07T23:36:25.899Z,96114.75
2023-03-07T23:38:54.537Z,96117.06
2023-03-07T23:41:23.024Z,96117.97
2023-03-07T23:43:52.650Z,96115.56
2023-03-07T23:46:22.618Z,96119.84
2023-03-07T23:48:50.930Z,96140.63
2023-03-07T23:51:19.366Z,96128.78
2023-03-07T23:53:47.660Z,96129.66
2023-03-07T23:56:15.874Z,96134.16
2023-03-07T23:58:44.315Z,96129.00
